sensor_id;sensor_type;location;lat;lon;timestamp;temperature;humidity
35541;DHT22;21650;48.840;9.162;2022-10-20T00:00:07;11.70;99.90
35541;DHT22;21650;48.840;9.162;2022-10-20T00:02:32;11.70;99.90
35541;DHT22;21650;48.840;9.162;2022-10-20T00:04:58;11.70;99.90
35541;DHT22;21650;48.840;9.162;2022-10-20T00:07:23;11.70;99.90
35541;DHT22;21650;48.840;9.162;2022-10-20T00:09:49;11.60;99.90
35541;DHT22;21650;48.840;9.162;2022-10-20T00:12:14;11.60;99.90
35541;DHT22;21650;48.840;9.162;2022-10-20T00:14:40;11.50;99.90
35541;DHT22;21650;48.840;9.162;2022-10-20T00:17:06;11.50;99.90
35541;DHT22;21650;48.840;9.162;2022-10-20T00:19:31;11.50;99.90
35541;DHT22;21650;48.840;9.162;2022-10-20T00:21:58;11.40;99.90
35541;DHT22;21650;48.840;9.162;2022-10-20T00:24:23;11.40;99.90
35541;DHT22;21650;48.840;9.162;2022-10-20T00:26:49;11.40;99.90
35541;DHT22;21650;48.840;9.162;2022-10-20T00:29:15;11.40;99.90
35541;DHT22;21650;48.840;9.162;2022-10-20T00:31:42;11.40;99.90
35541;DHT22;21650;48.840;9.162;2022-10-20T00:34:07;11.40;99.90
35541;DHT22;21650;48.840;9.162;2022-10-20T00:36:33;11.40;99.90
35541;DHT22;21650;48.840;9.162;2022-10-20T00:39:00;11.30;99.90
35541;DHT22;21650;48.840;9.162;2022-10-20T00:41:26;11.20;99.90
35541;DHT22;21650;48.840;9.162;2022-10-20T00:43:57;11.30;99.90
35541;DHT22;21650;48.840;9.162;2022-10-20T00:46:31;11.30;99.90
35541;DHT22;21650;48.840;9.162;2022-10-20T00:49:02;11.20;99.90
35541;DHT22;21650;48.840;9.162;2022-10-20T00:51:31;11.30;99.90
35541;DHT22;21650;48.840;9.162;2022-10-20T00:54:11;11.30;99.90
35541;DHT22;21650;48.840;9.162;2022-10-20T00:56:41;11.30;99.90
35541;DHT22;21650;48.840;9.162;2022-10-20T00:59:08;11.20;99.90
35541;DHT22;21650;48.840;9.162;2022-10-20T01:01:34;11.10;99.90
35541;DHT22;21650;48.840;9.162;2022-10-20T01:04:00;10.90;99.90
35541;DHT22;21650;48.840;9.162;2022-10-20T01:06:26;11.00;99.90
35541;DHT22;21650;48.840;9.162;2022-10-20T01:08:52;11.00;99.90
35541;DHT22;21650;48.840;9.162;2022-10-20T01:14:35;11.00;99.90
35541;DHT22;21650;48.840;9.162;2022-10-20T01:25:50;11.00;99.90
35541;DHT22;21650;48.840;9.162;2022-10-20T01:28:26;11.10;99.90
35541;DHT22;21650;48.840;9.162;2022-10-20T01:30:59;11.10;99.90
35541;DHT22;21650;48.840;9.162;2022-10-20T01:33:46;11.00;99.90
35541;DHT22;21650;48.840;9.162;2022-10-20T01:36:26;11.00;99.90
35541;DHT22;21650;48.840;9.162;2022-10-20T01:39:05;11.10;99.90
35541;DHT22;21650;48.840;9.162;2022-10-20T01:42:06;11.20;99.90
35541;DHT22;21650;48.840;9.162;2022-10-20T01:44:34;11.20;99.90
35541;DHT22;21650;48.840;9.162;2022-10-20T01:47:02;11.10;99.90
35541;DHT22;21650;48.840;9.162;2022-10-20T01:49:28;11.10;99.90
35541;DHT22;21650;48.840;9.162;2022-10-20T01:51:54;11.10;99.90
35541;DHT22;21650;48.840;9.162;2022-10-20T01:54:25;11.00;99.90
35541;DHT22;21650;48.840;9.162;2022-10-20T01:59:46;11.00;99.90
35541;DHT22;21650;48.840;9.162;2022-10-20T02:05:08;11.10;99.90
35541;DHT22;21650;48.840;9.162;2022-10-20T02:07:36;11.10;99.90
35541;DHT22;21650;48.840;9.162;2022-10-20T02:10:18;11.00;99.90
35541;DHT22;21650;48.840;9.162;2022-10-20T02:12:48;11.10;99.90
35541;DHT22;21650;48.840;9.162;2022-10-20T02:15:18;11.00;99.90
35541;DHT22;21650;48.840;9.162;2022-10-20T02:17:45;10.90;99.90
35541;DHT22;21650;48.840;9.162;2022-10-20T02:20:12;10.90;99.90
35541;DHT22;21650;48.840;9.162;2022-10-20T02:22:39;10.90;99.90
35541;DHT22;21650;48.840;9.162;2022-10-20T02:25:09;10.90;99.90
35541;DHT22;21650;48.840;9.162;2022-10-20T02:27:36;11.00;99.90
35541;DHT22;21650;48.840;9.162;2022-10-20T02:30:04;10.90;99.90
35541;DHT22;21650;48.840;9.162;2022-10-20T02:32:32;10.90;99.90
35541;DHT22;21650;48.840;9.162;2022-10-20T02:34:58;10.70;99.90
35541;DHT22;21650;48.840;9.162;2022-10-20T02:37:24;10.60;99.90
35541;DHT22;21650;48.840;9.162;2022-10-20T02:39:49;10.60;99.90
35541;DHT22;21650;48.840;9.162;2022-10-20T02:42:15;10.70;99.90
35541;DHT22;21650;48.840;9.162;2022-10-20T02:44:43;10.70;99.90
35541;DHT22;21650;48.840;9.162;2022-10-20T02:47:09;10.70;99.90
35541;DHT22;21650;48.840;9.162;2022-10-20T02:49:34;10.70;99.90
35541;DHT22;21650;48.840;9.162;2022-10-20T02:52:00;10.70;99.90
35541;DHT22;21650;48.840;9.162;2022-10-20T02:54:25;10.70;99.90
35541;DHT22;21650;48.840;9.162;2022-10-20T02:56:53;10.70;99.90
35541;DHT22;21650;48.840;9.162;2022-10-20T02:59:19;10.80;99.90
35541;DHT22;21650;48.840;9.162;2022-10-20T03:01:44;10.80;99.90
35541;DHT22;21650;48.840;9.162;2022-10-20T03:04:11;10.80;99.90
35541;DHT22;21650;48.840;9.162;2022-10-20T03:06:37;10.80;99.90
35541;DHT22;21650;48.840;9.162;2022-10-20T03:09:02;10.80;99.90
35541;DHT22;21650;48.840;9.162;2022-10-20T03:11:28;10.70;99.90
35541;DHT22;21650;48.840;9.162;2022-10-20T03:13:53;10.80;99.90
35541;DHT22;21650;48.840;9.162;2022-10-20T03:16:19;10.70;99.90
35541;DHT22;21650;48.840;9.162;2022-10-20T03:18:45;10.70;99.90
35541;DHT22;21650;48.840;9.162;2022-10-20T03:21:10;10.70;99.90
35541;DHT22;21650;48.840;9.162;2022-10-20T03:23:36;10.80;99.90
35541;DHT22;21650;48.840;9.162;2022-10-20T03:26:03;10.80;99.90
35541;DHT22;21650;48.840;9.162;2022-10-20T03:28:28;10.80;99.90
35541;DHT22;21650;48.840;9.162;2022-10-20T03:30:54;10.80;99.90
35541;DHT22;21650;48.840;9.162;2022-10-20T03:33:20;10.70;99.90
35541;DHT22;21650;48.840;9.162;2022-10-20T03:35:45;10.80;99.90
35541;DHT22;21650;48.840;9.162;2022-10-20T03:38:11;10.80;99.90
35541;DHT22;21650;48.840;9.162;2022-10-20T03:40:36;10.70;99.90
35541;DHT22;21650;48.840;9.162;2022-10-20T03:43:02;10.80;99.90
35541;DHT22;21650;48.840;9.162;2022-10-20T03:45:27;10.80;99.90
35541;DHT22;21650;48.840;9.162;2022-10-20T03:47:53;10.80;99.90
35541;DHT22;21650;48.840;9.162;2022-10-20T03:50:19;10.80;99.90
35541;DHT22;21650;48.840;9.162;2022-10-20T03:52:46;10.70;99.90
35541;DHT22;21650;48.840;9.162;2022-10-20T03:55:12;10.80;99.90
35541;DHT22;21650;48.840;9.162;2022-10-20T03:57:38;10.70;99.90
35541;DHT22;21650;48.840;9.162;2022-10-20T04:00:04;10.70;99.90
35541;DHT22;21650;48.840;9.162;2022-10-20T04:02:38;10.80;99.90
35541;DHT22;21650;48.840;9.162;2022-10-20T04:05:05;10.80;99.90
35541;DHT22;21650;48.840;9.162;2022-10-20T04:07:31;10.80;99.90
35541;DHT22;21650;48.840;9.162;2022-10-20T04:09:57;10.90;99.90
35541;DHT22;21650;48.840;9.162;2022-10-20T04:12:23;10.80;99.90
35541;DHT22;21650;48.840;9.162;2022-10-20T04:14:49;10.80;99.90
35541;DHT22;21650;48.840;9.162;2022-10-20T04:17:15;10.70;99.90
35541;DHT22;21650;48.840;9.162;2022-10-20T04:19:41;10.80;99.90
35541;DHT22;21650;48.840;9.162;2022-10-20T04:22:06;10.80;99.90
35541;DHT22;21650;48.840;9.162;2022-10-20T04:24:32;10.80;99.90
35541;DHT22;21650;48.840;9.162;2022-10-20T04:26:57;10.90;99.90
35541;DHT22;21650;48.840;9.162;2022-10-20T04:29:23;10.90;99.90
35541;DHT22;21650;48.840;9.162;2022-10-20T04:31:49;10.90;99.90
35541;DHT22;21650;48.840;9.162;2022-10-20T04:34:14;11.00;99.90
35541;DHT22;21650;48.840;9.162;2022-10-20T04:36:40;11.10;99.90
35541;DHT22;21650;48.840;9.162;2022-10-20T04:39:05;11.00;99.90
35541;DHT22;21650;48.840;9.162;2022-10-20T04:41:31;11.00;99.90
35541;DHT22;21650;48.840;9.162;2022-10-20T04:43:57;11.00;99.90
35541;DHT22;21650;48.840;9.162;2022-10-20T04:46:22;11.00;99.90
35541;DHT22;21650;48.840;9.162;2022-10-20T04:48:48;10.90;99.90
35541;DHT22;21650;48.840;9.162;2022-10-20T04:51:14;11.00;99.90
35541;DHT22;21650;48.840;9.162;2022-10-20T04:53:40;10.90;99.90
35541;DHT22;21650;48.840;9.162;2022-10-20T04:56:07;10.80;99.90
35541;DHT22;21650;48.840;9.162;2022-10-20T04:58:34;10.80;99.90
35541;DHT22;21650;48.840;9.162;2022-10-20T05:01:05;11.00;99.90
35541;DHT22;21650;48.840;9.162;2022-10-20T05:03:31;11.00;99.90
35541;DHT22;21650;48.840;9.162;2022-10-20T05:06:08;10.90;99.90
35541;DHT22;21650;48.840;9.162;2022-10-20T05:08:33;10.80;99.90
35541;DHT22;21650;48.840;9.162;2022-10-20T05:11:00;10.90;99.90
35541;DHT22;21650;48.840;9.162;2022-10-20T05:13:25;10.90;99.90
35541;DHT22;21650;48.840;9.162;2022-10-20T05:15:54;10.90;99.90
35541;DHT22;21650;48.840;9.162;2022-10-20T05:18:19;10.90;99.90
35541;DHT22;21650;48.840;9.162;2022-10-20T05:20:45;10.80;99.90
35541;DHT22;21650;48.840;9.162;2022-10-20T05:23:10;10.80;99.90
35541;DHT22;21650;48.840;9.162;2022-10-20T05:25:37;10.80;99.90
35541;DHT22;21650;48.840;9.162;2022-10-20T05:28:03;10.80;99.90
35541;DHT22;21650;48.840;9.162;2022-10-20T05:30:28;10.90;99.90
35541;DHT22;21650;48.840;9.162;2022-10-20T05:32:54;10.90;99.90
35541;DHT22;21650;48.840;9.162;2022-10-20T05:35:20;10.90;99.90
35541;DHT22;21650;48.840;9.162;2022-10-20T05:37:45;10.90;99.90
35541;DHT22;21650;48.840;9.162;2022-10-20T05:40:11;10.90;99.90
35541;DHT22;21650;48.840;9.162;2022-10-20T05:42:37;10.90;99.90
35541;DHT22;21650;48.840;9.162;2022-10-20T05:45:04;10.90;99.90
35541;DHT22;21650;48.840;9.162;2022-10-20T05:47:30;10.80;99.90
35541;DHT22;21650;48.840;9.162;2022-10-20T05:49:56;10.90;99.90
35541;DHT22;21650;48.840;9.162;2022-10-20T05:52:21;10.90;99.90
35541;DHT22;21650;48.840;9.162;2022-10-20T05:54:47;10.90;99.90
35541;DHT22;21650;48.840;9.162;2022-10-20T05:57:12;10.90;99.90
35541;DHT22;21650;48.840;9.162;2022-10-20T05:59:38;10.90;99.90
35541;DHT22;21650;48.840;9.162;2022-10-20T06:02:04;10.90;99.90
35541;DHT22;21650;48.840;9.162;2022-10-20T06:04:30;10.80;99.90
35541;DHT22;21650;48.840;9.162;2022-10-20T06:06:55;10.70;99.90
35541;DHT22;21650;48.840;9.162;2022-10-20T06:09:22;10.80;99.90
35541;DHT22;21650;48.840;9.162;2022-10-20T06:11:49;10.80;99.90
35541;DHT22;21650;48.840;9.162;2022-10-20T06:14:15;10.90;99.90
35541;DHT22;21650;48.840;9.162;2022-10-20T06:16:41;10.90;99.90
35541;DHT22;21650;48.840;9.162;2022-10-20T06:19:07;10.90;99.90
35541;DHT22;21650;48.840;9.162;2022-10-20T06:21:33;10.90;99.90
35541;DHT22;21650;48.840;9.162;2022-10-20T06:24:00;11.00;99.90
35541;DHT22;21650;48.840;9.162;2022-10-20T06:26:29;11.00;99.90
35541;DHT22;21650;48.840;9.162;2022-10-20T06:28:57;11.10;99.90
35541;DHT22;21650;48.840;9.162;2022-10-20T06:31:26;11.20;99.90
35541;DHT22;21650;48.840;9.162;2022-10-20T06:33:52;11.20;99.90
35541;DHT22;21650;48.840;9.162;2022-10-20T06:36:18;11.10;99.90
35541;DHT22;21650;48.840;9.162;2022-10-20T06:38:45;11.20;99.90
35541;DHT22;21650;48.840;9.162;2022-10-20T06:41:13;11.20;99.90
35541;DHT22;21650;48.840;9.162;2022-10-20T06:43:39;11.20;99.90
35541;DHT22;21650;48.840;9.162;2022-10-20T06:46:07;11.30;99.90
35541;DHT22;21650;48.840;9.162;2022-10-20T06:48:34;11.30;99.90
35541;DHT22;21650;48.840;9.162;2022-10-20T06:51:05;11.40;99.90
35541;DHT22;21650;48.840;9.162;2022-10-20T06:53:33;11.40;99.90
35541;DHT22;21650;48.840;9.162;2022-10-20T06:56:09;11.50;99.90
35541;DHT22;21650;48.840;9.162;2022-10-20T06:58:35;11.50;99.90
35541;DHT22;21650;48.840;9.162;2022-10-20T07:01:04;11.50;99.90
35541;DHT22;21650;48.840;9.162;2022-10-20T07:03:32;11.60;99.90
35541;DHT22;21650;48.840;9.162;2022-10-20T07:05:58;11.60;99.90
35541;DHT22;21650;48.840;9.162;2022-10-20T07:08:26;11.70;99.90
35541;DHT22;21650;48.840;9.162;2022-10-20T07:11:03;11.80;99.90
35541;DHT22;21650;48.840;9.162;2022-10-20T07:13:30;11.90;99.90
35541;DHT22;21650;48.840;9.162;2022-10-20T07:15:56;11.90;99.90
35541;DHT22;21650;48.840;9.162;2022-10-20T07:18:23;12.00;99.90
35541;DHT22;21650;48.840;9.162;2022-10-20T07:20:49;11.90;99.90
35541;DHT22;21650;48.840;9.162;2022-10-20T07:23:15;12.00;99.90
35541;DHT22;21650;48.840;9.162;2022-10-20T07:25:41;12.10;99.90
35541;DHT22;21650;48.840;9.162;2022-10-20T07:28:06;12.20;99.90
35541;DHT22;21650;48.840;9.162;2022-10-20T07:30:37;12.30;99.90
35541;DHT22;21650;48.840;9.162;2022-10-20T07:33:02;12.30;99.90
35541;DHT22;21650;48.840;9.162;2022-10-20T07:35:29;12.40;99.90
35541;DHT22;21650;48.840;9.162;2022-10-20T07:37:54;12.40;99.90
35541;DHT22;21650;48.840;9.162;2022-10-20T07:40:20;12.40;99.90
35541;DHT22;21650;48.840;9.162;2022-10-20T07:42:45;12.50;99.90
35541;DHT22;21650;48.840;9.162;2022-10-20T07:45:11;12.60;99.90
35541;DHT22;21650;48.840;9.162;2022-10-20T07:47:36;12.60;99.90
35541;DHT22;21650;48.840;9.162;2022-10-20T07:50:02;12.70;99.90
35541;DHT22;21650;48.840;9.162;2022-10-20T07:52:28;12.80;99.90
35541;DHT22;21650;48.840;9.162;2022-10-20T07:54:56;12.80;99.90
35541;DHT22;21650;48.840;9.162;2022-10-20T07:57:21;12.90;99.90
35541;DHT22;21650;48.840;9.162;2022-10-20T07:59:47;12.90;99.90
35541;DHT22;21650;48.840;9.162;2022-10-20T08:02:12;13.00;99.90
35541;DHT22;21650;48.840;9.162;2022-10-20T08:04:40;13.00;99.90
35541;DHT22;21650;48.840;9.162;2022-10-20T08:07:08;13.00;99.90
35541;DHT22;21650;48.840;9.162;2022-10-20T08:09:34;13.00;99.90
35541;DHT22;21650;48.840;9.162;2022-10-20T08:12:00;13.00;99.90
35541;DHT22;21650;48.840;9.162;2022-10-20T08:14:25;13.10;99.90
35541;DHT22;21650;48.840;9.162;2022-10-20T08:16:51;13.10;99.90
35541;DHT22;21650;48.840;9.162;2022-10-20T08:19:16;13.20;99.90
35541;DHT22;21650;48.840;9.162;2022-10-20T08:21:42;13.20;99.90
35541;DHT22;21650;48.840;9.162;2022-10-20T08:24:08;13.30;99.90
35541;DHT22;21650;48.840;9.162;2022-10-20T08:26:33;13.40;99.90
35541;DHT22;21650;48.840;9.162;2022-10-20T08:28:59;13.50;99.90
35541;DHT22;21650;48.840;9.162;2022-10-20T08:31:24;13.60;99.90
35541;DHT22;21650;48.840;9.162;2022-10-20T08:33:50;13.60;99.90
35541;DHT22;21650;48.840;9.162;2022-10-20T08:36:16;13.70;99.90
35541;DHT22;21650;48.840;9.162;2022-10-20T08:38:42;13.70;99.90
35541;DHT22;21650;48.840;9.162;2022-10-20T08:41:24;13.80;99.90
35541;DHT22;21650;48.840;9.162;2022-10-20T08:43:53;13.80;99.90
35541;DHT22;21650;48.840;9.162;2022-10-20T08:49:25;13.90;99.90
35541;DHT22;21650;48.840;9.162;2022-10-20T08:51:52;14.00;99.90
35541;DHT22;21650;48.840;9.162;2022-10-20T08:54:17;14.00;99.90
35541;DHT22;21650;48.840;9.162;2022-10-20T08:56:44;14.10;99.90
35541;DHT22;21650;48.840;9.162;2022-10-20T08:59:31;14.20;99.90
35541;DHT22;21650;48.840;9.162;2022-10-20T09:01:57;14.30;99.90
35541;DHT22;21650;48.840;9.162;2022-10-20T09:04:48;14.40;99.90
35541;DHT22;21650;48.840;9.162;2022-10-20T09:09:47;14.50;99.90
35541;DHT22;21650;48.840;9.162;2022-10-20T09:12:12;14.60;99.90
35541;DHT22;21650;48.840;9.162;2022-10-20T09:14:39;14.60;99.90
35541;DHT22;21650;48.840;9.162;2022-10-20T09:17:05;14.80;99.90
35541;DHT22;21650;48.840;9.162;2022-10-20T09:19:36;15.00;99.90
35541;DHT22;21650;48.840;9.162;2022-10-20T09:22:05;15.00;99.90
35541;DHT22;21650;48.840;9.162;2022-10-20T09:24:32;15.00;99.90
35541;DHT22;21650;48.840;9.162;2022-10-20T09:29:53;15.10;99.90
35541;DHT22;21650;48.840;9.162;2022-10-20T09:32:33;15.30;99.90
35541;DHT22;21650;48.840;9.162;2022-10-20T09:35:18;15.30;99.90
35541;DHT22;21650;48.840;9.162;2022-10-20T09:40:33;15.40;99.90
35541;DHT22;21650;48.840;9.162;2022-10-20T09:43:10;15.50;99.90
35541;DHT22;21650;48.840;9.162;2022-10-20T09:46:08;15.50;99.90
35541;DHT22;21650;48.840;9.162;2022-10-20T09:48:44;15.40;99.90
35541;DHT22;21650;48.840;9.162;2022-10-20T09:51:16;15.40;99.90
35541;DHT22;21650;48.840;9.162;2022-10-20T09:53:57;15.50;99.90
35541;DHT22;21650;48.840;9.162;2022-10-20T09:56:28;15.60;99.90
35541;DHT22;21650;48.840;9.162;2022-10-20T09:58:56;15.70;99.90
35541;DHT22;21650;48.840;9.162;2022-10-20T10:01:22;15.80;99.90
35541;DHT22;21650;48.840;9.162;2022-10-20T10:03:50;15.80;99.90
35541;DHT22;21650;48.840;9.162;2022-10-20T10:09:31;16.00;99.90
35541;DHT22;21650;48.840;9.162;2022-10-20T10:12:01;16.00;99.90
35541;DHT22;21650;48.840;9.162;2022-10-20T10:14:28;16.00;99.90
35541;DHT22;21650;48.840;9.162;2022-10-20T10:16:54;16.20;99.90
35541;DHT22;21650;48.840;9.162;2022-10-20T10:19:25;16.20;99.90
35541;DHT22;21650;48.840;9.162;2022-10-20T10:21:54;16.30;99.90
35541;DHT22;21650;48.840;9.162;2022-10-20T10:24:39;16.40;99.90
35541;DHT22;21650;48.840;9.162;2022-10-20T10:27:22;16.40;99.90
35541;DHT22;21650;48.840;9.162;2022-10-20T10:29:48;16.50;99.90
35541;DHT22;21650;48.840;9.162;2022-10-20T10:35:01;16.50;99.90
35541;DHT22;21650;48.840;9.162;2022-10-20T10:37:30;16.60;99.90
35541;DHT22;21650;48.840;9.162;2022-10-20T10:39:56;16.60;99.90
35541;DHT22;21650;48.840;9.162;2022-10-20T10:48:08;16.80;99.90
35541;DHT22;21650;48.840;9.162;2022-10-20T10:50:46;16.80;99.90
35541;DHT22;21650;48.840;9.162;2022-10-20T10:53:30;16.90;99.90
35541;DHT22;21650;48.840;9.162;2022-10-20T10:56:15;16.80;99.90
35541;DHT22;21650;48.840;9.162;2022-10-20T10:58:56;16.90;99.90
35541;DHT22;21650;48.840;9.162;2022-10-20T11:07:23;16.60;99.90
35541;DHT22;21650;48.840;9.162;2022-10-20T11:09:59;16.70;99.90
35541;DHT22;21650;48.840;9.162;2022-10-20T11:12:39;16.60;99.90
35541;DHT22;21650;48.840;9.162;2022-10-20T11:17:44;16.60;99.90
35541;DHT22;21650;48.840;9.162;2022-10-20T11:23:02;16.80;99.90
35541;DHT22;21650;48.840;9.162;2022-10-20T11:28:24;16.80;99.90
35541;DHT22;21650;48.840;9.162;2022-10-20T11:30:51;16.80;99.90
35541;DHT22;21650;48.840;9.162;2022-10-20T11:33:21;16.90;99.90
35541;DHT22;21650;48.840;9.162;2022-10-20T11:35:57;16.90;99.90
35541;DHT22;21650;48.840;9.162;2022-10-20T11:38:49;16.90;99.90
35541;DHT22;21650;48.840;9.162;2022-10-20T11:41:33;17.00;99.90
35541;DHT22;21650;48.840;9.162;2022-10-20T11:44:07;16.90;99.90
35541;DHT22;21650;48.840;9.162;2022-10-20T11:46:46;17.00;99.90
35541;DHT22;21650;48.840;9.162;2022-10-20T11:49:13;16.90;99.90
35541;DHT22;21650;48.840;9.162;2022-10-20T12:00:55;16.80;99.90
35541;DHT22;21650;48.840;9.162;2022-10-20T12:06:56;16.70;99.90
35541;DHT22;21650;48.840;9.162;2022-10-20T12:10:28;16.70;99.90
35541;DHT22;21650;48.840;9.162;2022-10-20T12:12:33;16.70;99.90
35541;DHT22;21650;48.840;9.162;2022-10-20T12:15:16;16.70;99.90
35541;DHT22;21650;48.840;9.162;2022-10-20T12:17:42;16.70;99.90
35541;DHT22;21650;48.840;9.162;2022-10-20T12:23:04;16.60;99.90
35541;DHT22;21650;48.840;9.162;2022-10-20T12:31:04;16.50;99.90
35541;DHT22;21650;48.840;9.162;2022-10-20T12:33:37;16.50;99.90
35541;DHT22;21650;48.840;9.162;2022-10-20T12:38:42;16.60;99.90
35541;DHT22;21650;48.840;9.162;2022-10-20T12:41:11;16.60;99.90
35541;DHT22;21650;48.840;9.162;2022-10-20T12:43:51;16.50;99.90
35541;DHT22;21650;48.840;9.162;2022-10-20T12:46:25;16.50;99.90
35541;DHT22;21650;48.840;9.162;2022-10-20T12:48:54;16.50;99.90
35541;DHT22;21650;48.840;9.162;2022-10-20T12:51:37;16.40;99.90
35541;DHT22;21650;48.840;9.162;2022-10-20T12:54:13;16.50;99.90
35541;DHT22;21650;48.840;9.162;2022-10-20T12:56:41;16.50;99.90
35541;DHT22;21650;48.840;9.162;2022-10-20T13:10:33;16.40;99.90
35541;DHT22;21650;48.840;9.162;2022-10-20T13:15:35;16.20;99.90
35541;DHT22;21650;48.840;9.162;2022-10-20T13:18:11;16.10;99.90
35541;DHT22;21650;48.840;9.162;2022-10-20T13:23:36;15.90;99.90
35541;DHT22;21650;48.840;9.162;2022-10-20T13:26:31;15.90;99.90
35541;DHT22;21650;48.840;9.162;2022-10-20T13:29:00;15.80;99.90
35541;DHT22;21650;48.840;9.162;2022-10-20T13:31:40;15.70;99.90
35541;DHT22;21650;48.840;9.162;2022-10-20T13:47:49;15.80;99.90
35541;DHT22;21650;48.840;9.162;2022-10-20T13:50:26;15.90;99.90
35541;DHT22;21650;48.840;9.162;2022-10-20T13:52:55;16.00;99.90
35541;DHT22;21650;48.840;9.162;2022-10-20T13:55:30;16.00;99.90
35541;DHT22;21650;48.840;9.162;2022-10-20T13:58:21;16.00;99.90
35541;DHT22;21650;48.840;9.162;2022-10-20T14:01:02;16.00;99.90
35541;DHT22;21650;48.840;9.162;2022-10-20T14:03:39;16.00;99.90
35541;DHT22;21650;48.840;9.162;2022-10-20T14:06:05;16.10;99.90
35541;DHT22;21650;48.840;9.162;2022-10-20T14:08:41;16.10;99.90
35541;DHT22;21650;48.840;9.162;2022-10-20T14:11:07;16.10;99.90
35541;DHT22;21650;48.840;9.162;2022-10-20T14:13:36;16.10;99.90
35541;DHT22;21650;48.840;9.162;2022-10-20T14:16:04;16.10;99.90
35541;DHT22;21650;48.840;9.162;2022-10-20T14:18:33;16.20;99.90
35541;DHT22;21650;48.840;9.162;2022-10-20T14:21:15;16.20;99.90
35541;DHT22;21650;48.840;9.162;2022-10-20T14:23:42;16.20;99.90
35541;DHT22;21650;48.840;9.162;2022-10-20T14:26:19;16.10;99.90
35541;DHT22;21650;48.840;9.162;2022-10-20T14:28:48;16.10;99.90
35541;DHT22;21650;48.840;9.162;2022-10-20T14:31:14;16.10;99.90
35541;DHT22;21650;48.840;9.162;2022-10-20T14:33:42;16.10;99.90
35541;DHT22;21650;48.840;9.162;2022-10-20T14:36:21;16.10;99.90
35541;DHT22;21650;48.840;9.162;2022-10-20T14:38:51;16.10;99.90
35541;DHT22;21650;48.840;9.162;2022-10-20T14:41:29;16.10;99.90
35541;DHT22;21650;48.840;9.162;2022-10-20T14:44:00;16.10;99.90
35541;DHT22;21650;48.840;9.162;2022-10-20T14:46:30;16.00;99.90
35541;DHT22;21650;48.840;9.162;2022-10-20T14:48:59;16.00;99.90
35541;DHT22;21650;48.840;9.162;2022-10-20T14:59:25;15.80;99.90
35541;DHT22;21650;48.840;9.162;2022-10-20T15:02:13;15.80;99.90
35541;DHT22;21650;48.840;9.162;2022-10-20T15:04:44;15.90;99.90
35541;DHT22;21650;48.840;9.162;2022-10-20T15:07:16;15.80;99.90
35541;DHT22;21650;48.840;9.162;2022-10-20T15:12:15;15.80;99.90
35541;DHT22;21650;48.840;9.162;2022-10-20T15:14:47;15.80;99.90
35541;DHT22;21650;48.840;9.162;2022-10-20T15:17:40;15.80;99.90
35541;DHT22;21650;48.840;9.162;2022-10-20T15:23:40;15.80;99.90
35541;DHT22;21650;48.840;9.162;2022-10-20T15:26:01;15.70;99.90
35541;DHT22;21650;48.840;9.162;2022-10-20T15:30:59;15.70;99.90
35541;DHT22;21650;48.840;9.162;2022-10-20T15:33:25;15.60;99.90
35541;DHT22;21650;48.840;9.162;2022-10-20T15:35:51;15.60;99.90
35541;DHT22;21650;48.840;9.162;2022-10-20T15:38:17;15.60;99.90
35541;DHT22;21650;48.840;9.162;2022-10-20T15:40:43;15.50;99.90
35541;DHT22;21650;48.840;9.162;2022-10-20T15:43:15;15.50;99.90
35541;DHT22;21650;48.840;9.162;2022-10-20T15:45:52;15.50;99.90
35541;DHT22;21650;48.840;9.162;2022-10-20T15:48:19;15.50;99.90
35541;DHT22;21650;48.840;9.162;2022-10-20T15:50:45;15.50;99.90
35541;DHT22;21650;48.840;9.162;2022-10-20T15:53:11;15.50;99.90
35541;DHT22;21650;48.840;9.162;2022-10-20T15:55:40;15.40;99.90
35541;DHT22;21650;48.840;9.162;2022-10-20T15:58:05;15.40;99.90
35541;DHT22;21650;48.840;9.162;2022-10-20T16:00:31;15.40;99.90
35541;DHT22;21650;48.840;9.162;2022-10-20T16:02:56;15.40;99.90
35541;DHT22;21650;48.840;9.162;2022-10-20T16:05:23;15.40;99.90
35541;DHT22;21650;48.840;9.162;2022-10-20T16:07:50;15.40;99.90
35541;DHT22;21650;48.840;9.162;2022-10-20T16:10:17;15.30;99.90
35541;DHT22;21650;48.840;9.162;2022-10-20T16:12:43;15.30;99.90
35541;DHT22;21650;48.840;9.162;2022-10-20T16:15:09;15.30;99.90
35541;DHT22;21650;48.840;9.162;2022-10-20T16:17:35;15.30;99.90
35541;DHT22;21650;48.840;9.162;2022-10-20T16:20:02;15.20;99.90
35541;DHT22;21650;48.840;9.162;2022-10-20T16:22:28;15.20;99.90
35541;DHT22;21650;48.840;9.162;2022-10-20T16:24:53;15.20;99.90
35541;DHT22;21650;48.840;9.162;2022-10-20T16:27:21;15.10;99.90
35541;DHT22;21650;48.840;9.162;2022-10-20T16:29:46;15.10;99.90
35541;DHT22;21650;48.840;9.162;2022-10-20T16:32:12;15.10;99.90
35541;DHT22;21650;48.840;9.162;2022-10-20T16:34:37;15.10;99.90
35541;DHT22;21650;48.840;9.162;2022-10-20T16:37:03;15.10;99.90
35541;DHT22;21650;48.840;9.162;2022-10-20T16:39:28;15.10;99.90
35541;DHT22;21650;48.840;9.162;2022-10-20T16:41:54;15.10;99.90
35541;DHT22;21650;48.840;9.162;2022-10-20T16:44:20;15.00;99.90
35541;DHT22;21650;48.840;9.162;2022-10-20T16:46:45;15.10;99.90
35541;DHT22;21650;48.840;9.162;2022-10-20T16:49:11;15.10;99.90
35541;DHT22;21650;48.840;9.162;2022-10-20T16:51:36;15.10;99.90
35541;DHT22;21650;48.840;9.162;2022-10-20T16:54:02;15.20;99.90
35541;DHT22;21650;48.840;9.162;2022-10-20T16:56:28;15.10;99.90
35541;DHT22;21650;48.840;9.162;2022-10-20T16:58:53;15.10;99.90
35541;DHT22;21650;48.840;9.162;2022-10-20T17:01:21;15.10;99.90
35541;DHT22;21650;48.840;9.162;2022-10-20T17:03:49;15.00;99.90
35541;DHT22;21650;48.840;9.162;2022-10-20T17:06:16;15.00;99.90
35541;DHT22;21650;48.840;9.162;2022-10-20T17:08:43;15.10;99.90
35541;DHT22;21650;48.840;9.162;2022-10-20T17:11:11;15.10;99.90
35541;DHT22;21650;48.840;9.162;2022-10-20T17:13:38;15.00;99.90
35541;DHT22;21650;48.840;9.162;2022-10-20T17:16:06;15.00;99.90
35541;DHT22;21650;48.840;9.162;2022-10-20T17:18:32;15.10;99.90
35541;DHT22;21650;48.840;9.162;2022-10-20T17:20:57;15.00;99.90
35541;DHT22;21650;48.840;9.162;2022-10-20T17:23:24;15.00;99.90
35541;DHT22;21650;48.840;9.162;2022-10-20T17:25:50;15.00;99.90
35541;DHT22;21650;48.840;9.162;2022-10-20T17:28:16;15.00;99.90
35541;DHT22;21650;48.840;9.162;2022-10-20T17:30:43;14.90;99.90
35541;DHT22;21650;48.840;9.162;2022-10-20T17:33:09;14.90;99.90
35541;DHT22;21650;48.840;9.162;2022-10-20T17:35:35;14.80;99.90
35541;DHT22;21650;48.840;9.162;2022-10-20T17:38:01;14.90;99.90
35541;DHT22;21650;48.840;9.162;2022-10-20T17:40:27;14.80;99.90
35541;DHT22;21650;48.840;9.162;2022-10-20T17:42:52;14.90;99.90
35541;DHT22;21650;48.840;9.162;2022-10-20T17:45:18;14.90;99.90